createdAt,value
2022-12-04T00:00:16.651Z,1.74
2022-12-04T00:02:43.584Z,1.75
2022-12-04T00:05:10.612Z,1.72
2022-12-04T00:07:37.559Z,1.78
2022-12-04T00:10:04.931Z,1.74
2022-12-04T00:12:31.854Z,1.77
2022-12-04T00:17:49.047Z,1.80
2022-12-04T00:20:18.180Z,1.78
2022-12-04T00:22:45.036Z,1.83
2022-12-04T00:25:12.335Z,1.68
2022-12-04T00:27:39.421Z,1.74
2022-12-04T00:30:07.140Z,1.76
2022-12-04T00:32:34.228Z,1.79
2022-12-04T00:35:01.039Z,1.80
2022-12-04T00:37:28.310Z,1.86
2022-12-04T00:39:56.048Z,1.88
2022-12-04T00:42:24.529Z,1.83
2022-12-04T00:44:52.269Z,1.90
2022-12-04T00:47:19.150Z,1.93
2022-12-04T00:49:46.322Z,1.95
2022-12-04T00:52:13.471Z,1.98
2022-12-04T00:54:40.323Z,1.99
2022-12-04T00:57:07.185Z,1.98
2022-12-04T00:59:34.410Z,2.01
2022-12-04T01:02:01.524Z,2.04
2022-12-04T01:04:28.781Z,2.10
2022-12-04T01:06:59.041Z,2.16
2022-12-04T01:09:28.985Z,2.17
2022-12-04T01:11:56.156Z,2.03
2022-12-04T01:14:22.978Z,1.72
2022-12-04T01:16:49.780Z,1.43
2022-12-04T01:19:17.098Z,1.28
2022-12-04T01:21:43.953Z,1.24
2022-12-04T01:24:10.716Z,1.28
2022-12-04T01:26:37.953Z,1.47
2022-12-04T01:29:05.387Z,1.57
2022-12-04T01:31:32.617Z,1.59
2022-12-04T01:33:59.693Z,1.66
2022-12-04T01:36:28.392Z,1.65
2022-12-04T01:38:56.577Z,1.73
2022-12-04T01:41:27.292Z,1.73
2022-12-04T01:44:11.049Z,1.77
2022-12-04T01:46:38.863Z,1.86
2022-12-04T01:49:08.787Z,1.92
2022-12-04T01:51:52.232Z,1.85
2022-12-04T01:54:23.214Z,1.95
2022-12-04T01:56:53.631Z,1.96
2022-12-04T01:59:22.699Z,2.00
2022-12-04T02:01:54.048Z,2.05
2022-12-04T02:04:21.059Z,2.08
2022-12-04T02:06:48.001Z,2.18
2022-12-04T02:09:15.054Z,2.23
2022-12-04T02:11:52.851Z,2.30
2022-12-04T02:14:25.490Z,2.35
2022-12-04T02:16:55.003Z,2.39
2022-12-04T02:19:30.790Z,2.44
2022-12-04T02:21:59.699Z,2.56
2022-12-04T02:24:53.161Z,2.67
2022-12-04T02:27:40.795Z,2.76
2022-12-04T02:30:13.391Z,2.88
2022-12-04T02:33:01.619Z,2.98
2022-12-04T02:35:33.131Z,3.13
2022-12-04T02:38:23.854Z,3.21
2022-12-04T02:41:06.360Z,3.17
2022-12-04T02:43:45.147Z,3.26
2022-12-04T02:46:28.968Z,3.29
2022-12-04T02:48:58.939Z,3.28
2022-12-04T02:51:28.145Z,3.26
2022-12-04T02:53:58.129Z,3.30
2022-12-04T02:56:28.410Z,3.31
2022-12-04T02:58:58.711Z,3.31
2022-12-04T03:01:30.315Z,3.31
2022-12-04T03:04:11.327Z,3.30
2022-12-04T03:06:40.647Z,3.31
2022-12-04T03:09:18.353Z,3.32
2022-12-04T03:11:50.496Z,3.30
2022-12-04T03:14:24.428Z,3.30
2022-12-04T03:16:53.929Z,3.32
2022-12-04T03:19:24.360Z,3.32
2022-12-04T03:21:58.307Z,3.33
2022-12-04T03:24:29.628Z,3.35
2022-12-04T03:27:09.323Z,3.39
2022-12-04T03:29:41.723Z,3.41
2022-12-04T03:32:26.771Z,3.41
2022-12-04T03:35:17.053Z,3.42
2022-12-04T03:37:58.076Z,3.36
2022-12-04T03:40:36.042Z,3.40
2022-12-04T03:43:21.270Z,3.36
2022-12-04T03:46:11.082Z,3.35
2022-12-04T03:48:52.991Z,3.35
2022-12-04T03:51:51.341Z,3.35
2022-12-04T03:54:25.277Z,3.32
2022-12-04T03:56:56.282Z,3.32
2022-12-04T03:59:31.570Z,3.29
2022-12-04T04:02:00.591Z,3.28
2022-12-04T04:04:36.190Z,3.25
2022-12-04T04:07:07.907Z,3.25
2022-12-04T04:09:37.087Z,3.25
2022-12-04T04:12:20.633Z,3.26
2022-12-04T04:15:10.365Z,3.27
2022-12-04T04:17:59.967Z,3.28
2022-12-04T04:21:02.745Z,3.22
2022-12-04T04:23:51.541Z,3.29
2022-12-04T04:26:18.627Z,3.29
2022-12-04T04:28:46.376Z,3.29
2022-12-04T04:31:34.374Z,3.27
2022-12-04T04:34:10.327Z,3.27
2022-12-04T04:36:39.777Z,3.26
2022-12-04T04:39:18.316Z,3.26
2022-12-04T04:41:55.528Z,3.25
2022-12-04T04:44:52.106Z,3.17
2022-12-04T04:47:25.600Z,3.24
2022-12-04T04:49:54.106Z,3.24
2022-12-04T04:52:22.870Z,3.25
2022-12-04T04:54:49.751Z,3.24
2022-12-04T04:57:31.580Z,3.24
2022-12-04T04:59:58.695Z,3.25
2022-12-04T05:02:26.819Z,3.24
2022-12-04T05:04:54.574Z,3.24
2022-12-04T05:07:21.426Z,3.24
2022-12-04T05:09:48.505Z,3.24
2022-12-04T05:12:15.377Z,3.26
2022-12-04T05:14:42.203Z,3.26
2022-12-04T05:17:12.508Z,3.28
2022-12-04T05:19:56.389Z,3.31
2022-12-04T05:22:29.960Z,3.31
2022-12-04T05:24:56.819Z,3.33
2022-12-04T05:27:25.131Z,3.33
2022-12-04T05:29:54.304Z,3.32
2022-12-04T05:32:22.508Z,3.32
2022-12-04T05:34:50.383Z,3.31
2022-12-04T05:37:17.430Z,3.32
2022-12-04T05:39:44.809Z,3.32
2022-12-04T05:42:12.066Z,3.33
2022-12-04T05:44:39.297Z,3.31
2022-12-04T05:47:06.600Z,3.33
2022-12-04T05:49:34.261Z,3.33
2022-12-04T05:52:02.388Z,3.34
2022-12-04T05:54:29.141Z,3.32
2022-12-04T05:56:55.982Z,3.33
2022-12-04T05:59:23.099Z,3.34
2022-12-04T06:01:49.998Z,3.33
2022-12-04T06:04:16.767Z,3.32
2022-12-04T06:06:43.548Z,3.28
2022-12-04T06:09:11.723Z,3.31
2022-12-04T06:11:40.568Z,3.33
2022-12-04T06:14:10.318Z,3.31
2022-12-04T06:16:40.213Z,3.31
2022-12-04T06:19:13.296Z,3.31
2022-12-04T06:21:42.098Z,3.33
2022-12-04T06:24:15.222Z,3.32
2022-12-04T06:27:04.074Z,3.32
2022-12-04T06:29:30.168Z,3.31
2022-12-04T06:31:57.107Z,3.35
2022-12-04T06:34:24.099Z,3.35
2022-12-04T06:36:50.930Z,3.39
2022-12-04T06:39:19.081Z,3.39
2022-12-04T06:41:47.576Z,3.40
2022-12-04T06:44:15.281Z,3.40
2022-12-04T06:46:46.932Z,3.41
2022-12-04T06:49:14.496Z,3.44
2022-12-04T06:51:41.489Z,3.47
2022-12-04T06:54:09.319Z,3.44
2022-12-04T06:56:36.313Z,3.44
2022-12-04T06:59:04.534Z,3.37
2022-12-04T07:01:33.625Z,3.46
2022-12-04T07:04:03.952Z,3.47
2022-12-04T07:06:36.047Z,3.50
2022-12-04T07:09:15.670Z,3.52
2022-12-04T07:11:43.344Z,3.52
2022-12-04T07:14:10.800Z,3.54
2022-12-04T07:16:41.493Z,3.60
2022-12-04T07:19:13.783Z,3.69
2022-12-04T07:21:41.723Z,3.70
2022-12-04T07:24:09.287Z,3.75
2022-12-04T07:26:36.121Z,3.75
2022-12-04T07:33:00.962Z,3.76
2022-12-04T07:35:28.137Z,3.80
2022-12-04T07:37:55.000Z,3.81
2022-12-04T07:40:22.200Z,3.82
2022-12-04T07:42:49.114Z,3.80
2022-12-04T07:45:16.046Z,3.79
2022-12-04T07:47:43.044Z,3.84
2022-12-04T07:50:11.326Z,3.87
2022-12-04T07:52:39.400Z,3.88
2022-12-04T07:55:07.638Z,3.92
2022-12-04T07:58:07.435Z,6.11
2022-12-04T08:00:34.639Z,4.53
2022-12-04T08:03:02.251Z,4.33
2022-12-04T08:05:29.126Z,4.58
2022-12-04T08:07:56.326Z,4.58
2022-12-04T08:10:23.232Z,4.73
2022-12-04T08:12:50.162Z,4.75
2022-12-04T08:15:17.115Z,5.14
2022-12-04T08:17:44.094Z,5.17
2022-12-04T08:20:11.582Z,5.43
2022-12-04T08:22:38.442Z,5.68
2022-12-04T08:25:05.654Z,5.78
2022-12-04T08:27:32.683Z,5.64
2022-12-04T08:29:59.580Z,5.58
2022-12-04T08:32:26.720Z,5.51
2022-12-04T08:34:55.823Z,5.44
2022-12-04T08:37:24.527Z,5.39
2022-12-04T08:39:52.908Z,5.33
2022-12-04T08:42:20.056Z,5.24
2022-12-04T08:44:49.216Z,5.14
2022-12-04T08:47:16.159Z,5.18
2022-12-04T08:49:44.181Z,5.22
2022-12-04T08:52:11.178Z,5.26
2022-12-04T08:54:38.135Z,5.29
2022-12-04T08:57:05.744Z,5.35
2022-12-04T08:59:32.757Z,5.35
2022-12-04T09:01:59.886Z,5.44
2022-12-04T09:04:27.011Z,5.50
2022-12-04T09:06:53.972Z,5.54
2022-12-04T09:09:21.124Z,5.62
2022-12-04T09:11:48.575Z,5.68
2022-12-04T09:14:15.973Z,5.72
2022-12-04T09:16:43.377Z,5.85
2022-12-04T09:19:11.065Z,5.88
2022-12-04T09:21:38.523Z,5.95
2022-12-04T09:24:07.004Z,5.97
2022-12-04T09:26:37.515Z,6.09
2022-12-04T09:29:06.081Z,6.15
2022-12-04T09:31:33.842Z,6.17
2022-12-04T09:34:02.176Z,6.18
2022-12-04T09:36:29.789Z,6.20
2022-12-04T09:38:58.089Z,6.14
2022-12-04T09:41:28.070Z,6.12
2022-12-04T09:44:05.152Z,6.29
2022-12-04T09:46:51.415Z,6.40
2022-12-04T09:49:26.849Z,6.28
2022-12-04T09:51:57.766Z,6.44
2022-12-04T09:54:28.580Z,6.58
2022-12-04T09:57:01.928Z,6.63
2022-12-04T09:59:31.274Z,6.65
2022-12-04T10:02:17.972Z,6.72
2022-12-04T10:04:45.271Z,6.67
2022-12-04T10:07:12.502Z,6.71
2022-12-04T10:09:45.975Z,6.66
2022-12-04T10:12:23.291Z,6.74
2022-12-04T10:14:56.835Z,6.66
2022-12-04T10:17:42.420Z,6.69
2022-12-04T10:20:37.678Z,6.74
2022-12-04T10:23:18.050Z,6.73
2022-12-04T10:25:44.867Z,6.72
2022-12-04T10:28:28.143Z,6.68
2022-12-04T10:30:58.283Z,6.72
2022-12-04T10:33:36.647Z,6.72
2022-12-04T10:36:04.120Z,6.69
2022-12-04T10:38:41.250Z,6.68
2022-12-04T10:41:16.107Z,6.72
2022-12-04T10:43:45.605Z,6.73
2022-12-04T10:46:21.093Z,6.82
2022-12-04T10:48:50.824Z,6.91
2022-12-04T10:51:21.460Z,6.96
2022-12-04T10:53:49.535Z,7.09
2022-12-04T10:56:21.859Z,7.05
2022-12-04T10:59:15.415Z,7.10
2022-12-04T11:01:42.395Z,7.07
2022-12-04T11:04:24.957Z,7.07
2022-12-04T11:07:06.354Z,7.17
2022-12-04T11:09:34.894Z,7.26
2022-12-04T11:12:15.687Z,7.28
2022-12-04T11:14:46.830Z,7.35
2022-12-04T11:17:18.955Z,7.40
2022-12-04T11:19:46.287Z,7.51
2022-12-04T11:22:16.213Z,7.60
2022-12-04T11:24:43.657Z,7.67
2022-12-04T11:27:40.119Z,7.70
2022-12-04T11:30:15.671Z,7.79
2022-12-04T11:32:45.549Z,7.85
2022-12-04T11:35:21.570Z,7.91
2022-12-04T11:37:55.835Z,7.89
2022-12-04T11:40:23.440Z,7.93
2022-12-04T11:43:04.369Z,8.00
2022-12-04T11:45:32.294Z,8.07
2022-12-04T11:48:02.270Z,8.02
2022-12-04T11:50:51.481Z,8.07
2022-12-04T11:53:29.098Z,8.04
2022-12-04T11:56:34.611Z,8.08
2022-12-04T11:59:24.654Z,7.96
2022-12-04T12:02:13.777Z,8.03
2022-12-04T12:05:08.948Z,8.01
2022-12-04T12:07:50.993Z,8.00
2022-12-04T12:10:46.688Z,7.99
2022-12-04T12:13:30.990Z,8.03
2022-12-04T12:16:19.229Z,7.94
2022-12-04T12:19:13.228Z,7.96
2022-12-04T12:21:55.057Z,7.97
2022-12-04T12:24:36.859Z,8.01
2022-12-04T12:27:42.374Z,8.01
2022-12-04T12:30:16.132Z,8.01
2022-12-04T12:33:10.224Z,8.02
2022-12-04T12:35:44.585Z,8.02
2022-12-04T12:38:22.467Z,8.06
2022-12-04T12:40:53.889Z,8.08
2022-12-04T12:43:33.818Z,8.08
2022-12-04T12:46:05.216Z,8.06
2022-12-04T12:48:56.592Z,8.07
2022-12-04T12:51:44.296Z,8.03
2022-12-04T12:54:36.527Z,8.09
2022-12-04T12:57:27.146Z,8.12
2022-12-04T12:59:58.882Z,8.13
2022-12-04T13:02:34.330Z,8.11
2022-12-04T13:05:05.752Z,8.09
2022-12-04T13:07:45.121Z,8.08
2022-12-04T13:10:20.388Z,8.10
2022-12-04T13:12:57.896Z,8.10
2022-12-04T13:15:31.153Z,8.07
2022-12-04T13:17:58.937Z,8.08
2022-12-04T13:20:30.745Z,8.05
2022-12-04T13:23:21.336Z,8.03
2022-12-04T13:26:03.364Z,8.03
2022-12-04T13:28:36.498Z,8.02
2022-12-04T13:31:10.139Z,8.04
2022-12-04T13:33:42.618Z,8.04
2022-12-04T13:36:25.026Z,8.06
2022-12-04T13:39:06.955Z,8.03
2022-12-04T13:41:36.572Z,8.03
2022-12-04T13:44:13.625Z,8.02
2022-12-04T13:46:54.326Z,8.01
2022-12-04T13:49:25.271Z,7.97
2022-12-04T13:51:53.064Z,7.94
2022-12-04T13:54:23.618Z,7.90
2022-12-04T13:56:53.314Z,7.85
2022-12-04T13:59:20.140Z,7.81
2022-12-04T14:01:50.289Z,7.77
2022-12-04T14:04:30.350Z,7.72
2022-12-04T14:07:00.094Z,7.64
2022-12-04T14:09:41.986Z,7.59
2022-12-04T14:12:14.047Z,7.49
2022-12-04T14:14:55.897Z,7.43
2022-12-04T14:17:34.231Z,7.41
2022-12-04T14:20:07.771Z,7.34
2022-12-04T14:22:35.544Z,7.30
2022-12-04T14:25:12.909Z,7.21
2022-12-04T14:27:43.330Z,7.15
2022-12-04T14:30:23.148Z,7.06
2022-12-04T14:32:55.091Z,6.99
2022-12-04T14:35:26.812Z,6.89
2022-12-04T14:38:01.801Z,6.81
2022-12-04T14:40:37.182Z,6.71
2022-12-04T14:43:04.919Z,6.66
2022-12-04T14:45:45.696Z,6.58
2022-12-04T14:48:22.200Z,6.49
2022-12-04T14:51:27.349Z,6.43
2022-12-04T14:53:57.552Z,6.39
2022-12-04T14:56:56.949Z,6.37
2022-12-04T14:59:33.006Z,6.34
2022-12-04T15:02:00.182Z,6.32
2022-12-04T15:04:33.335Z,6.29
2022-12-04T15:07:01.004Z,6.31
2022-12-04T15:09:47.273Z,6.30
2022-12-04T15:12:33.995Z,6.31
2022-12-04T15:15:11.413Z,6.34
2022-12-04T15:17:38.479Z,6.36
2022-12-04T15:20:17.419Z,6.40
2022-12-04T15:22:44.897Z,6.43
2022-12-04T15:25:19.693Z,6.45
2022-12-04T15:27:48.859Z,6.42
2022-12-04T15:30:21.895Z,6.48
2022-12-04T15:32:52.387Z,6.47
2022-12-04T15:35:24.967Z,6.48
2022-12-04T15:37:52.115Z,6.51
2022-12-04T15:40:22.783Z,6.52
2022-12-04T15:42:50.838Z,6.53
2022-12-04T15:45:20.747Z,6.53
2022-12-04T15:47:48.361Z,6.54
2022-12-04T15:50:16.863Z,6.54
2022-12-04T15:52:56.371Z,6.53
2022-12-04T15:55:25.364Z,6.53
2022-12-04T15:57:58.711Z,6.53
2022-12-04T16:00:37.589Z,6.52
2022-12-04T16:03:31.311Z,6.53
2022-12-04T16:06:21.467Z,6.51
2022-12-04T16:09:17.582Z,6.50
2022-12-04T16:11:44.858Z,6.51
2022-12-04T16:14:11.881Z,6.50
2022-12-04T16:16:43.774Z,6.49
2022-12-04T16:19:28.064Z,6.47
2022-12-04T16:21:55.314Z,6.46
2022-12-04T16:24:22.438Z,6.46
2022-12-04T16:26:51.465Z,6.45
2022-12-04T16:29:18.620Z,6.44
2022-12-04T16:31:45.972Z,6.39
2022-12-04T16:34:13.780Z,6.45
2022-12-04T16:36:41.458Z,6.41
2022-12-04T16:39:08.985Z,6.40
2022-12-04T16:41:36.106Z,6.43
2022-12-04T16:44:03.404Z,6.42
2022-12-04T16:46:30.594Z,6.44
2022-12-04T16:49:01.507Z,6.45
2022-12-04T16:51:31.559Z,6.45
2022-12-04T16:53:58.871Z,6.44
2022-12-04T16:56:25.862Z,6.45
2022-12-04T16:58:53.235Z,6.45
2022-12-04T17:01:43.024Z,6.44
2022-12-04T17:04:10.763Z,6.42
2022-12-04T17:06:38.185Z,6.41
2022-12-04T17:09:05.821Z,6.40
2022-12-04T17:11:33.253Z,6.37
2022-12-04T17:14:00.539Z,6.37
2022-12-04T17:16:29.352Z,6.35
2022-12-04T17:18:56.477Z,6.37
2022-12-04T17:21:23.511Z,6.33
2022-12-04T17:23:50.713Z,6.33
2022-12-04T17:26:17.910Z,6.31
2022-12-04T17:28:45.819Z,6.29
2022-12-04T17:31:15.412Z,6.28
2022-12-04T17:33:43.560Z,6.25
2022-12-04T17:36:13.325Z,6.29
2022-12-04T17:38:45.483Z,6.27
2022-12-04T17:41:14.949Z,6.22
2022-12-04T17:43:44.874Z,6.23
2022-12-04T17:46:18.886Z,6.24
2022-12-04T17:48:46.160Z,6.24
2022-12-04T17:51:15.798Z,6.22
2022-12-04T17:53:43.239Z,6.20
2022-12-04T17:56:17.391Z,6.20
2022-12-04T17:58:45.418Z,6.16
2022-12-04T18:01:15.672Z,6.21
2022-12-04T18:03:43.885Z,6.18
2022-12-04T18:06:25.326Z,6.17
2022-12-04T18:08:53.094Z,6.13
2022-12-04T18:11:21.694Z,6.16
2022-12-04T18:13:50.024Z,6.14
2022-12-04T18:16:17.328Z,6.14
2022-12-04T18:18:47.135Z,6.12
2022-12-04T18:21:15.342Z,6.07
2022-12-04T18:23:46.077Z,6.09
2022-12-04T18:26:21.313Z,6.09
2022-12-04T18:28:48.909Z,6.10
2022-12-04T18:31:18.048Z,6.08
2022-12-04T18:33:45.592Z,6.09
2022-12-04T18:36:15.474Z,6.08
2022-12-04T18:38:42.870Z,6.11
2022-12-04T18:41:14.009Z,6.13
2022-12-04T18:43:44.584Z,6.14
2022-12-04T18:46:16.908Z,6.14
2022-12-04T18:48:48.369Z,6.13
2022-12-04T18:51:37.816Z,6.12
2022-12-04T18:54:10.631Z,6.12
2022-12-04T18:56:38.414Z,6.12
2022-12-04T18:59:17.210Z,6.13
2022-12-04T19:01:44.449Z,6.12
2022-12-04T19:04:13.965Z,6.08
2022-12-04T19:06:45.511Z,6.07
2022-12-04T19:09:18.506Z,6.10
2022-12-04T19:11:47.199Z,6.09
2022-12-04T19:14:23.112Z,6.08
2022-12-04T19:16:51.663Z,6.08
2022-12-04T19:19:19.190Z,6.05
2022-12-04T19:21:47.067Z,6.04
2022-12-04T19:24:14.398Z,6.02
2022-12-04T19:26:42.819Z,5.99
2022-12-04T19:29:13.811Z,5.97
2022-12-04T19:31:42.237Z,5.96
2022-12-04T19:34:09.702Z,5.94
2022-12-04T19:36:36.977Z,5.86
2022-12-04T19:39:07.090Z,5.86
2022-12-04T19:41:35.361Z,5.85
2022-12-04T19:44:14.621Z,5.75
2022-12-04T19:46:50.383Z,5.82
2022-12-04T19:49:17.610Z,5.78
2022-12-04T19:51:47.766Z,5.80
2022-12-04T19:54:17.110Z,5.78
2022-12-04T19:56:46.387Z,5.72
2022-12-04T19:59:14.108Z,5.73
2022-12-04T20:01:41.442Z,5.70
2022-12-04T20:04:09.155Z,5.68
2022-12-04T20:06:39.369Z,5.65
2022-12-04T20:09:10.064Z,5.64
2022-12-04T20:11:38.135Z,5.62
2022-12-04T20:14:06.290Z,5.64
2022-12-04T20:16:34.627Z,5.62
2022-12-04T20:19:04.830Z,5.57
2022-12-04T20:21:32.989Z,5.58
2022-12-04T20:24:05.553Z,5.62
2022-12-04T20:26:36.423Z,5.60
2022-12-04T20:29:07.315Z,5.54
2022-12-04T20:31:38.825Z,5.57
2022-12-04T20:34:11.681Z,5.53
2022-12-04T20:36:45.901Z,5.56
2022-12-04T20:39:15.916Z,5.53
2022-12-04T20:41:44.455Z,5.59
2022-12-04T20:44:16.302Z,5.62
2022-12-04T20:46:45.322Z,5.56
2022-12-04T20:49:22.033Z,5.56
2022-12-04T20:51:53.017Z,5.55
2022-12-04T20:54:23.130Z,5.46
2022-12-04T20:56:53.850Z,5.48
2022-12-04T20:59:24.839Z,5.50
2022-12-04T21:01:54.063Z,5.45
2022-12-04T21:04:23.366Z,5.39
2022-12-04T21:06:52.614Z,5.40
2022-12-04T21:09:24.474Z,5.40
2022-12-04T21:11:55.094Z,5.43
2022-12-04T21:14:45.039Z,5.39
2022-12-04T21:17:18.928Z,5.41
2022-12-04T21:19:49.680Z,5.32
2022-12-04T21:22:18.932Z,5.33
2022-12-04T21:24:47.015Z,5.32
2022-12-04T21:27:19.104Z,5.32
2022-12-04T21:29:49.428Z,5.32
2022-12-04T21:32:18.301Z,5.30
2022-12-04T21:34:45.316Z,5.27
2022-12-04T21:37:12.202Z,5.28
2022-12-04T21:39:39.207Z,5.29
2022-12-04T21:42:25.417Z,5.28
2022-12-04T21:44:52.699Z,5.23
2022-12-04T21:47:19.615Z,5.18
2022-12-04T21:49:48.070Z,5.21
2022-12-04T21:52:18.927Z,5.21
2022-12-04T21:54:49.540Z,5.18
2022-12-04T21:57:16.983Z,5.22
2022-12-04T21:59:44.768Z,5.22
2022-12-04T22:02:13.488Z,5.19
2022-12-04T22:04:42.398Z,5.22
2022-12-04T22:07:10.798Z,5.22
2022-12-04T22:09:38.376Z,5.20
2022-12-04T22:12:26.399Z,5.22
2022-12-04T22:14:55.870Z,5.17
2022-12-04T22:17:23.614Z,5.19
2022-12-04T22:19:50.528Z,5.18
2022-12-04T22:22:17.426Z,5.18
2022-12-04T22:24:44.233Z,5.18
2022-12-04T22:27:14.961Z,5.21
2022-12-04T22:29:50.642Z,5.20
2022-12-04T22:32:18.887Z,5.20
2022-12-04T22:34:48.722Z,5.18
2022-12-04T22:37:15.629Z,5.22
2022-12-04T22:39:42.517Z,5.20
2022-12-04T22:42:09.379Z,5.21
2022-12-04T22:44:36.227Z,5.18
2022-12-04T22:47:03.121Z,5.15
2022-12-04T22:49:30.091Z,5.16
2022-12-04T22:51:57.125Z,5.16
2022-12-04T22:54:24.018Z,5.15
2022-12-04T22:56:50.858Z,5.14
2022-12-04T22:59:17.667Z,5.18
2022-12-04T23:01:44.452Z,5.13
2022-12-04T23:04:11.304Z,5.16
2022-12-04T23:06:38.110Z,5.13
2022-12-04T23:09:07.981Z,5.12
2022-12-04T23:11:35.992Z,5.14
2022-12-04T23:14:05.648Z,5.10
2022-12-04T23:16:33.394Z,5.13
2022-12-04T23:19:00.612Z,5.13
2022-12-04T23:21:28.051Z,5.17
2022-12-04T23:23:56.095Z,5.14
2022-12-04T23:26:25.338Z,5.14
2022-12-04T23:28:52.368Z,5.12
2022-12-04T23:31:19.633Z,5.07
2022-12-04T23:33:46.894Z,5.14
2022-12-04T23:36:14.612Z,5.18
2022-12-04T23:38:43.540Z,5.11
2022-12-04T23:41:15.739Z,5.09
2022-12-04T23:43:43.135Z,5.08
2022-12-04T23:46:11.822Z,5.07
2022-12-04T23:48:39.742Z,5.09
2022-12-04T23:51:07.786Z,5.04
2022-12-04T23:53:34.936Z,5.03
2022-12-04T23:56:10.948Z,5.06
2022-12-04T23:58:38.367Z,5.06
